Seattle Express — A8UE4 — position and weather

sailwx.info

Track history (hours):
 
Tides and Currents Weather Stations Pressure Air Temp Water Temp Dewpoint Dewpoint Depression Visibility Wind Speed Wind Dir Waves Ship Positions

Seattle Express

Last reported at 2013-Nov-23 18:33 UTC. Time now 2014-Oct-02 04:28 UTC.
Position N 32°02' W 080°55'.
Warning: this ship's position is months out of date.

Length 334 m; draft 11 m.

Type: Ship (hazmat cat A). MMSI: 636091890.

Date/timePositionNaut miles runAvg speedWind from/ knotsBaromVisibWave heightAir tempDewpointWater temp
2013-Nov-23 18:33N 32°02' W 080°55'8 7.8
2013-Nov-23 17:33N 32°05' W 081°04'4 4.4
2013-Nov-23 16:33N 32°08' W 081°08'0 0.1
2013-Nov-23 15:32N 32°08' W 081°08'0 0.0
2013-Nov-23 12:08N 32°08' W 081°08'0 0.0
2013-Nov-23 06:23N 32°08' W 081°08'0 0.0
2013-Nov-23 05:32N 32°08' W 081°08'0 0.0
2013-Nov-23 04:17N 32°08' W 081°08'0 0.0
2013-Nov-23 03:26N 32°08' W 081°08'0 0.0
2013-Nov-23 02:32N 32°08' W 081°08'0 0.0
2013-Nov-23 01:29N 32°08' W 081°08'0 0.0
2013-Nov-23 00:26N 32°08' W 081°08'0 0.0
2013-Nov-22 23:14N 32°08' W 081°08'0 0.0
2013-Nov-22 22:32N 32°08' W 081°08'0 0.0
2013-Nov-22 21:32N 32°08' W 081°08'0 0.0
2013-Nov-22 19:14N 32°08' W 081°08'0 0.0
2013-Nov-22 18:29N 32°08' W 081°08'0 0.0
2013-Nov-22 17:32N 32°08' W 081°08'2 2.4
2013-Nov-22 16:33N 32°06' W 081°06'6 6.3
2013-Nov-22 15:33N 32°05' W 080°59'1210.1
2013-Nov-22 14:24N 31°60' W 080°47'56114.1
2013-Nov-20 22:33N 39°29' W 073°54'2019.8
2013-Nov-20 21:33N 39°49' W 073°52'1918.4
2013-Nov-20 20:32N 40°07' W 073°50'1110.2
2013-Nov-20 19:30N 40°18' W 073°49'8 8.9
2013-Nov-20 18:33N 40°26' W 073°50'1212.1
2013-Nov-20 17:34N 40°34' W 074°02'6 6.3
2013-Nov-20 16:32N 40°40' W 074°05'0 0.0
2013-Nov-20 15:32N 40°40' W 074°05'0 0.0
2013-Nov-20 14:32N 40°40' W 074°05'0 0.0
2013-Nov-20 13:32N 40°40' W 074°05'0 0.0
2013-Nov-20 12:32N 40°40' W 074°05'0 0.0
2013-Nov-20 11:32N 40°40' W 074°05'0 0.0
2013-Nov-20 10:32N 40°40' W 074°05'0 0.0
2013-Nov-20 09:32N 40°40' W 074°05'0 0.0
2013-Nov-20 08:29N 40°40' W 074°05'0 0.0
2013-Nov-20 07:32N 40°40' W 074°05'0 0.0
2013-Nov-20 06:32N 40°40' W 074°05'0 0.0
2013-Nov-20 05:32N 40°40' W 074°05'0 0.0
2013-Nov-20 04:32N 40°40' W 074°05'0 0.0
2013-Nov-20 03:32N 40°40' W 074°05'0 0.0
2013-Nov-20 02:32N 40°40' W 074°05'0 0.0
2013-Nov-20 01:32N 40°40' W 074°05'0 0.0
2013-Nov-20 00:29N 40°40' W 074°05'0 0.0
2013-Nov-19 23:32N 40°40' W 074°05'0 0.0
2013-Nov-19 22:32N 40°40' W 074°05'0 0.0
2013-Nov-19 21:32N 40°40' W 074°05'0 0.0
2013-Nov-19 20:32N 40°40' W 074°05'0 0.0
2013-Nov-19 19:32N 40°40' W 074°05'0 0.0
2013-Nov-19 18:32N 40°40' W 074°05'0 0.0
2013-Nov-19 17:32N 40°40' W 074°05'0 0.0
2013-Nov-19 16:32N 40°40' W 074°05'0 0.0
2013-Nov-19 15:32N 40°40' W 074°05'0 0.0
2013-Nov-19 14:32N 40°40' W 074°05'0 0.0
2013-Nov-19 13:32N 40°40' W 074°05'0 0.0
2013-Nov-19 12:32N 40°40' W 074°05'0 0.0
2013-Nov-19 11:29N 40°40' W 074°05'0 0.0
2013-Nov-19 10:32N 40°40' W 074°05'0 0.0
2013-Nov-19 09:29N 40°40' W 074°05'0 0.0
2013-Nov-19 08:32N 40°40' W 074°05'0 0.0
2013-Nov-19 07:32N 40°40' W 074°05'0 0.0
2013-Nov-19 06:32N 40°40' W 074°05'0 0.0
2013-Nov-19 05:32N 40°40' W 074°05'0 0.0
2013-Nov-19 04:32N 40°40' W 074°05'0 0.0
2013-Nov-19 03:29N 40°40' W 074°05'0 0.0
2013-Nov-19 02:32N 40°40' W 074°05'0 0.0
2013-Nov-19 01:32N 40°40' W 074°05'0 0.0
2013-Nov-19 00:32N 40°40' W 074°05'0 0.0
2013-Nov-18 23:29N 40°40' W 074°05'0 0.0
2013-Nov-18 22:32N 40°40' W 074°05'0 0.0
2013-Nov-18 21:32N 40°40' W 074°05'0 0.1
2013-Nov-18 19:33N 40°40' W 074°05'9 9.3
2013-Nov-18 18:33N 40°31' W 074°00'10 9.9
2013-Nov-18 17:33N 40°28' W 073°48'7 7.5
2013-Nov-18 16:33N 40°28' W 073°38'9 9.2
2013-Nov-18 15:33N 40°28' W 073°26'1110.4
2013-Nov-18 14:31N 40°29' W 073°12'1515.9
2013-Nov-18 13:33N 40°30' W 072°52'1615.9
2013-Nov-18 12:33N 40°31' W 072°31'1615.7
2013-Nov-18 11:33N 40°31' W 072°10'1616.0
2013-Nov-18 10:33N 40°31' W 071°49'1616.4
2013-Nov-18 09:33N 40°32' W 071°28'1717.1
2013-Nov-18 08:33N 40°32' W 071°05'1716.9
2013-Nov-18 07:33N 40°32' W 070°43'1716.9
2013-Nov-18 06:33N 40°33' W 070°21'1716.9
2013-Nov-18 05:33N 40°33' W 069°59'1616.5
2013-Nov-18 04:33N 40°34' W 069°37'1616.3
2013-Nov-18 03:33N 40°34' W 069°15'1717.0
2013-Nov-18 02:33N 40°32' W 068°53'1818.3
2013-Nov-18 01:33N 40°29' W 068°30'69618.5
2013-Nov-16 12:00N 40°00' W 053°18'43718.2 020 / 91028.0 5.4 18.013.6
2013-Nov-15 12:00N 40°00' W 043°48'62518.6 360 / 191023.0 5.4 14.0 8.520.0
2013-Nov-14 02:23N 39°47' W 030°14'1918.8
2013-Nov-14 01:23N 39°45' W 029°49'1518.6
2013-Nov-14 00:34N 39°43' W 029°29'1918.6
2013-Nov-13 23:34N 39°42' W 029°05'1918.8
2013-Nov-13 22:33N 39°40' W 028°41'1919.0
2013-Nov-13 21:33N 39°37' W 028°17'1919.0
2013-Nov-13 20:33N 39°35' W 027°52'1919.1
2013-Nov-13 19:33N 39°33' W 027°27'  
Track history (hours):
 
Tides and Currents Weather Stations Pressure Air Temp Water Temp Dewpoint Dewpoint Depression Visibility Wind Speed Wind Dir Waves Ship Positions

Seattle Express

Last reported at 2013-Nov-23 18:33 UTC. Time now 2014-Oct-02 04:28 UTC.
Position N 32°02' W 080°55'.
Warning: this ship's position is months out of date.

Length 334 m; draft 11 m.

Type: Ship (hazmat cat A). MMSI: 636091890.

Date/timePositionNaut miles runAvg speedWind from/ knotsBaromVisibWave heightAir tempDewpointWater temp
2013-Nov-23 18:33N 32°02' W 080°55'8 7.8
2013-Nov-23 17:33N 32°05' W 081°04'4 4.4
2013-Nov-23 16:33N 32°08' W 081°08'0 0.1
2013-Nov-23 15:32N 32°08' W 081°08'0 0.0
2013-Nov-23 12:08N 32°08' W 081°08'0 0.0
2013-Nov-23 06:23N 32°08' W 081°08'0 0.0
2013-Nov-23 05:32N 32°08' W 081°08'0 0.0
2013-Nov-23 04:17N 32°08' W 081°08'0 0.0
2013-Nov-23 03:26N 32°08' W 081°08'0 0.0
2013-Nov-23 02:32N 32°08' W 081°08'0 0.0
2013-Nov-23 01:29N 32°08' W 081°08'0 0.0
2013-Nov-23 00:26N 32°08' W 081°08'0 0.0
2013-Nov-22 23:14N 32°08' W 081°08'0 0.0
2013-Nov-22 22:32N 32°08' W 081°08'0 0.0
2013-Nov-22 21:32N 32°08' W 081°08'0 0.0
2013-Nov-22 19:14N 32°08' W 081°08'0 0.0
2013-Nov-22 18:29N 32°08' W 081°08'0 0.0
2013-Nov-22 17:32N 32°08' W 081°08'2 2.4
2013-Nov-22 16:33N 32°06' W 081°06'6 6.3
2013-Nov-22 15:33N 32°05' W 080°59'1210.1
2013-Nov-22 14:24N 31°60' W 080°47'56114.1
2013-Nov-20 22:33N 39°29' W 073°54'2019.8
2013-Nov-20 21:33N 39°49' W 073°52'1918.4
2013-Nov-20 20:32N 40°07' W 073°50'1110.2
2013-Nov-20 19:30N 40°18' W 073°49'8 8.9
2013-Nov-20 18:33N 40°26' W 073°50'1212.1
2013-Nov-20 17:34N 40°34' W 074°02'6 6.3
2013-Nov-20 16:32N 40°40' W 074°05'0 0.0
2013-Nov-20 15:32N 40°40' W 074°05'0 0.0
2013-Nov-20 14:32N 40°40' W 074°05'0 0.0
2013-Nov-20 13:32N 40°40' W 074°05'0 0.0
2013-Nov-20 12:32N 40°40' W 074°05'0 0.0
2013-Nov-20 11:32N 40°40' W 074°05'0 0.0
2013-Nov-20 10:32N 40°40' W 074°05'0 0.0
2013-Nov-20 09:32N 40°40' W 074°05'0 0.0
2013-Nov-20 08:29N 40°40' W 074°05'0 0.0
2013-Nov-20 07:32N 40°40' W 074°05'0 0.0
2013-Nov-20 06:32N 40°40' W 074°05'0 0.0
2013-Nov-20 05:32N 40°40' W 074°05'0 0.0
2013-Nov-20 04:32N 40°40' W 074°05'0 0.0
2013-Nov-20 03:32N 40°40' W 074°05'0 0.0
2013-Nov-20 02:32N 40°40' W 074°05'0 0.0
2013-Nov-20 01:32N 40°40' W 074°05'0 0.0
2013-Nov-20 00:29N 40°40' W 074°05'0 0.0
2013-Nov-19 23:32N 40°40' W 074°05'0 0.0
2013-Nov-19 22:32N 40°40' W 074°05'0 0.0
2013-Nov-19 21:32N 40°40' W 074°05'0 0.0
2013-Nov-19 20:32N 40°40' W 074°05'0 0.0
2013-Nov-19 19:32N 40°40' W 074°05'0 0.0
2013-Nov-19 18:32N 40°40' W 074°05'0 0.0
2013-Nov-19 17:32N 40°40' W 074°05'0 0.0
2013-Nov-19 16:32N 40°40' W 074°05'0 0.0
2013-Nov-19 15:32N 40°40' W 074°05'0 0.0
2013-Nov-19 14:32N 40°40' W 074°05'0 0.0
2013-Nov-19 13:32N 40°40' W 074°05'0 0.0
2013-Nov-19 12:32N 40°40' W 074°05'0 0.0
2013-Nov-19 11:29N 40°40' W 074°05'0 0.0
2013-Nov-19 10:32N 40°40' W 074°05'0 0.0
2013-Nov-19 09:29N 40°40' W 074°05'0 0.0
2013-Nov-19 08:32N 40°40' W 074°05'0 0.0
2013-Nov-19 07:32N 40°40' W 074°05'0 0.0
2013-Nov-19 06:32N 40°40' W 074°05'0 0.0
2013-Nov-19 05:32N 40°40' W 074°05'0 0.0
2013-Nov-19 04:32N 40°40' W 074°05'0 0.0
2013-Nov-19 03:29N 40°40' W 074°05'0 0.0
2013-Nov-19 02:32N 40°40' W 074°05'0 0.0
2013-Nov-19 01:32N 40°40' W 074°05'0 0.0
2013-Nov-19 00:32N 40°40' W 074°05'0 0.0
2013-Nov-18 23:29N 40°40' W 074°05'0 0.0
2013-Nov-18 22:32N 40°40' W 074°05'0 0.0
2013-Nov-18 21:32N 40°40' W 074°05'0 0.1
2013-Nov-18 19:33N 40°40' W 074°05'9 9.3
2013-Nov-18 18:33N 40°31' W 074°00'10 9.9
2013-Nov-18 17:33N 40°28' W 073°48'7 7.5
2013-Nov-18 16:33N 40°28' W 073°38'9 9.2
2013-Nov-18 15:33N 40°28' W 073°26'1110.4
2013-Nov-18 14:31N 40°29' W 073°12'1515.9
2013-Nov-18 13:33N 40°30' W 072°52'1615.9
2013-Nov-18 12:33N 40°31' W 072°31'1615.7
2013-Nov-18 11:33N 40°31' W 072°10'1616.0
2013-Nov-18 10:33N 40°31' W 071°49'1616.4
2013-Nov-18 09:33N 40°32' W 071°28'1717.1
2013-Nov-18 08:33N 40°32' W 071°05'1716.9
2013-Nov-18 07:33N 40°32' W 070°43'1716.9
2013-Nov-18 06:33N 40°33' W 070°21'1716.9
2013-Nov-18 05:33N 40°33' W 069°59'1616.5
2013-Nov-18 04:33N 40°34' W 069°37'1616.3
2013-Nov-18 03:33N 40°34' W 069°15'1717.0
2013-Nov-18 02:33N 40°32' W 068°53'1818.3
2013-Nov-18 01:33N 40°29' W 068°30'69618.5
2013-Nov-16 12:00N 40°00' W 053°18'43718.2 020 / 91028.0 5.4 18.013.6
2013-Nov-15 12:00N 40°00' W 043°48'62518.6 360 / 191023.0 5.4 14.0 8.520.0
2013-Nov-14 02:23N 39°47' W 030°14'1918.8
2013-Nov-14 01:23N 39°45' W 029°49'1518.6
2013-Nov-14 00:34N 39°43' W 029°29'1918.6
2013-Nov-13 23:34N 39°42' W 029°05'1918.8
2013-Nov-13 22:33N 39°40' W 028°41'1919.0
2013-Nov-13 21:33N 39°37' W 028°17'1919.0
2013-Nov-13 20:33N 39°35' W 027°52'1919.1
2013-Nov-13 19:33N 39°33' W 027°27'  

Dump ship's entire track history